sensor_id;sensor_type;location;lat;lon;timestamp;P1;durP1;ratioP1;P2;durP2;ratioP2
33930;SDS011;20215;53.130;6.408;2022-12-24T00:00:59;4.30;;;3.72;;
33930;SDS011;20215;53.130;6.408;2022-12-24T00:03:25;3.97;;;3.42;;
33930;SDS011;20215;53.130;6.408;2022-12-24T00:05:51;3.35;;;3.03;;
33930;SDS011;20215;53.130;6.408;2022-12-24T00:08:17;5.35;;;3.92;;
33930;SDS011;20215;53.130;6.408;2022-12-24T00:10:42;4.07;;;3.35;;
33930;SDS011;20215;53.130;6.408;2022-12-24T00:13:08;5.50;;;3.55;;
33930;SDS011;20215;53.130;6.408;2022-12-24T00:15:34;4.97;;;3.55;;
33930;SDS011;20215;53.130;6.408;2022-12-24T00:17:59;3.50;;;3.03;;
33930;SDS011;20215;53.130;6.408;2022-12-24T00:20:25;5.10;;;3.80;;
33930;SDS011;20215;53.130;6.408;2022-12-24T00:22:50;5.40;;;4.18;;
33930;SDS011;20215;53.130;6.408;2022-12-24T00:25:16;3.67;;;2.90;;
33930;SDS011;20215;53.130;6.408;2022-12-24T00:27:41;4.18;;;3.30;;
33930;SDS011;20215;53.130;6.408;2022-12-24T00:30:07;3.97;;;3.58;;
33930;SDS011;20215;53.130;6.408;2022-12-24T00:32:33;4.70;;;4.10;;
33930;SDS011;20215;53.130;6.408;2022-12-24T00:34:59;3.47;;;3.17;;
33930;SDS011;20215;53.130;6.408;2022-12-24T00:37:24;4.22;;;3.30;;
33930;SDS011;20215;53.130;6.408;2022-12-24T00:39:50;4.20;;;3.53;;
33930;SDS011;20215;53.130;6.408;2022-12-24T00:42:15;3.55;;;2.95;;
33930;SDS011;20215;53.130;6.408;2022-12-24T00:44:41;4.10;;;2.92;;
33930;SDS011;20215;53.130;6.408;2022-12-24T00:47:06;5.18;;;3.72;;
33930;SDS011;20215;53.130;6.408;2022-12-24T00:49:32;4.40;;;3.13;;
33930;SDS011;20215;53.130;6.408;2022-12-24T00:51:58;3.60;;;2.97;;
33930;SDS011;20215;53.130;6.408;2022-12-24T00:54:23;4.15;;;3.25;;
33930;SDS011;20215;53.130;6.408;2022-12-24T00:56:49;3.70;;;3.33;;
33930;SDS011;20215;53.130;6.408;2022-12-24T00:59:14;3.75;;;3.20;;
33930;SDS011;20215;53.130;6.408;2022-12-24T01:01:40;4.35;;;3.80;;
33930;SDS011;20215;53.130;6.408;2022-12-24T01:04:05;4.35;;;3.35;;
33930;SDS011;20215;53.130;6.408;2022-12-24T01:06:50;4.80;;;3.55;;
33930;SDS011;20215;53.130;6.408;2022-12-24T01:09:15;4.85;;;3.83;;
33930;SDS011;20215;53.130;6.408;2022-12-24T01:11:41;3.97;;;3.13;;
33930;SDS011;20215;53.130;6.408;2022-12-24T01:14:07;4.55;;;3.80;;
33930;SDS011;20215;53.130;6.408;2022-12-24T01:16:33;4.35;;;3.60;;
33930;SDS011;20215;53.130;6.408;2022-12-24T01:18:58;3.53;;;3.10;;
33930;SDS011;20215;53.130;6.408;2022-12-24T01:21:24;3.90;;;3.25;;
33930;SDS011;20215;53.130;6.408;2022-12-24T01:23:49;4.60;;;3.83;;
33930;SDS011;20215;53.130;6.408;2022-12-24T01:26:16;3.92;;;3.53;;
33930;SDS011;20215;53.130;6.408;2022-12-24T01:28:41;4.35;;;3.65;;
33930;SDS011;20215;53.130;6.408;2022-12-24T01:31:14;4.10;;;3.35;;
33930;SDS011;20215;53.130;6.408;2022-12-24T01:33:42;4.32;;;3.78;;
33930;SDS011;20215;53.130;6.408;2022-12-24T01:36:09;4.45;;;3.38;;
33930;SDS011;20215;53.130;6.408;2022-12-24T01:38:35;3.63;;;3.25;;
33930;SDS011;20215;53.130;6.408;2022-12-24T01:41:01;4.00;;;3.38;;
33930;SDS011;20215;53.130;6.408;2022-12-24T01:43:45;5.00;;;3.72;;
33930;SDS011;20215;53.130;6.408;2022-12-24T01:46:18;4.20;;;3.65;;
33930;SDS011;20215;53.130;6.408;2022-12-24T01:48:51;4.70;;;4.20;;
33930;SDS011;20215;53.130;6.408;2022-12-24T01:51:23;5.38;;;4.40;;
33930;SDS011;20215;53.130;6.408;2022-12-24T01:54:04;5.18;;;4.50;;
33930;SDS011;20215;53.130;6.408;2022-12-24T01:56:38;4.80;;;3.85;;
33930;SDS011;20215;53.130;6.408;2022-12-24T01:59:09;4.85;;;4.05;;
33930;SDS011;20215;53.130;6.408;2022-12-24T02:01:38;4.57;;;3.90;;
33930;SDS011;20215;53.130;6.408;2022-12-24T02:04:07;4.68;;;4.07;;
33930;SDS011;20215;53.130;6.408;2022-12-24T02:06:41;4.43;;;3.50;;
33930;SDS011;20215;53.130;6.408;2022-12-24T02:09:07;6.15;;;4.22;;
33930;SDS011;20215;53.130;6.408;2022-12-24T02:11:33;5.22;;;4.15;;
33930;SDS011;20215;53.130;6.408;2022-12-24T02:14:03;5.30;;;4.05;;
33930;SDS011;20215;53.130;6.408;2022-12-24T02:16:37;5.35;;;4.18;;
33930;SDS011;20215;53.130;6.408;2022-12-24T02:22:14;5.88;;;4.18;;
33930;SDS011;20215;53.130;6.408;2022-12-24T02:25:10;4.70;;;4.20;;
33930;SDS011;20215;53.130;6.408;2022-12-24T02:30:41;5.78;;;4.35;;
33930;SDS011;20215;53.130;6.408;2022-12-24T02:36:03;4.72;;;4.18;;
33930;SDS011;20215;53.130;6.408;2022-12-24T02:38:41;4.88;;;3.90;;
33930;SDS011;20215;53.130;6.408;2022-12-24T02:41:15;5.05;;;4.43;;
33930;SDS011;20215;53.130;6.408;2022-12-24T02:43:47;4.88;;;4.18;;
33930;SDS011;20215;53.130;6.408;2022-12-24T02:46:20;4.72;;;3.75;;
33930;SDS011;20215;53.130;6.408;2022-12-24T02:48:49;5.47;;;4.20;;
33930;SDS011;20215;53.130;6.408;2022-12-24T02:51:15;4.45;;;4.03;;
33930;SDS011;20215;53.130;6.408;2022-12-24T02:53:45;4.10;;;3.60;;
33930;SDS011;20215;53.130;6.408;2022-12-24T02:56:14;4.00;;;3.50;;
33930;SDS011;20215;53.130;6.408;2022-12-24T02:58:58;4.38;;;3.78;;
33930;SDS011;20215;53.130;6.408;2022-12-24T03:02:01;4.22;;;3.72;;
33930;SDS011;20215;53.130;6.408;2022-12-24T03:12:27;7.70;;;3.72;;
33930;SDS011;20215;53.130;6.408;2022-12-24T03:14:57;3.63;;;2.80;;
33930;SDS011;20215;53.130;6.408;2022-12-24T03:17:24;4.32;;;3.30;;
33930;SDS011;20215;53.130;6.408;2022-12-24T03:19:51;3.78;;;3.22;;
33930;SDS011;20215;53.130;6.408;2022-12-24T03:22:19;4.63;;;2.90;;
33930;SDS011;20215;53.130;6.408;2022-12-24T03:24:46;3.80;;;3.35;;
33930;SDS011;20215;53.130;6.408;2022-12-24T03:27:12;7.05;;;3.45;;
33930;SDS011;20215;53.130;6.408;2022-12-24T03:29:39;4.13;;;3.08;;
33930;SDS011;20215;53.130;6.408;2022-12-24T03:32:05;3.13;;;2.67;;
33930;SDS011;20215;53.130;6.408;2022-12-24T03:34:31;3.58;;;3.00;;
33930;SDS011;20215;53.130;6.408;2022-12-24T03:36:57;4.10;;;2.58;;
33930;SDS011;20215;53.130;6.408;2022-12-24T03:39:23;4.18;;;3.47;;
33930;SDS011;20215;53.130;6.408;2022-12-24T03:41:49;4.43;;;2.63;;
33930;SDS011;20215;53.130;6.408;2022-12-24T03:44:14;3.03;;;2.70;;
33930;SDS011;20215;53.130;6.408;2022-12-24T03:46:40;7.50;;;3.13;;
33930;SDS011;20215;53.130;6.408;2022-12-24T03:49:06;4.47;;;2.90;;
33930;SDS011;20215;53.130;6.408;2022-12-24T03:51:31;3.58;;;2.75;;
33930;SDS011;20215;53.130;6.408;2022-12-24T03:53:57;5.70;;;2.72;;
33930;SDS011;20215;53.130;6.408;2022-12-24T03:56:24;3.97;;;2.42;;
33930;SDS011;20215;53.130;6.408;2022-12-24T03:58:50;3.45;;;2.67;;
33930;SDS011;20215;53.130;6.408;2022-12-24T04:01:16;2.70;;;2.15;;
33930;SDS011;20215;53.130;6.408;2022-12-24T04:03:42;3.75;;;2.20;;
33930;SDS011;20215;53.130;6.408;2022-12-24T04:06:10;4.57;;;2.47;;
33930;SDS011;20215;53.130;6.408;2022-12-24T04:08:37;2.53;;;1.88;;
33930;SDS011;20215;53.130;6.408;2022-12-24T04:11:04;2.90;;;2.10;;
33930;SDS011;20215;53.130;6.408;2022-12-24T04:13:30;6.05;;;2.70;;
33930;SDS011;20215;53.130;6.408;2022-12-24T04:15:59;6.00;;;3.10;;
33930;SDS011;20215;53.130;6.408;2022-12-24T04:18:27;3.35;;;1.95;;
33930;SDS011;20215;53.130;6.408;2022-12-24T04:20:53;3.33;;;1.52;;
33930;SDS011;20215;53.130;6.408;2022-12-24T04:23:19;3.47;;;2.05;;
33930;SDS011;20215;53.130;6.408;2022-12-24T04:25:45;3.13;;;1.63;;
33930;SDS011;20215;53.130;6.408;2022-12-24T04:28:11;4.20;;;1.95;;
33930;SDS011;20215;53.130;6.408;2022-12-24T04:30:37;4.18;;;1.90;;
33930;SDS011;20215;53.130;6.408;2022-12-24T04:33:03;3.53;;;1.27;;
33930;SDS011;20215;53.130;6.408;2022-12-24T04:35:29;3.85;;;1.90;;
33930;SDS011;20215;53.130;6.408;2022-12-24T04:37:55;2.38;;;1.35;;
33930;SDS011;20215;53.130;6.408;2022-12-24T04:40:20;5.28;;;1.58;;
33930;SDS011;20215;53.130;6.408;2022-12-24T04:42:46;4.65;;;1.80;;
33930;SDS011;20215;53.130;6.408;2022-12-24T04:45:11;3.13;;;1.58;;
33930;SDS011;20215;53.130;6.408;2022-12-24T04:47:37;5.20;;;1.75;;
33930;SDS011;20215;53.130;6.408;2022-12-24T04:50:03;4.45;;;1.75;;
33930;SDS011;20215;53.130;6.408;2022-12-24T04:52:28;4.53;;;1.60;;
33930;SDS011;20215;53.130;6.408;2022-12-24T04:54:54;3.75;;;1.60;;
33930;SDS011;20215;53.130;6.408;2022-12-24T04:57:20;5.80;;;2.00;;
33930;SDS011;20215;53.130;6.408;2022-12-24T04:59:45;4.05;;;1.50;;
33930;SDS011;20215;53.130;6.408;2022-12-24T05:02:11;4.32;;;2.80;;
33930;SDS011;20215;53.130;6.408;2022-12-24T05:04:36;6.55;;;1.88;;
33930;SDS011;20215;53.130;6.408;2022-12-24T05:07:02;4.97;;;1.75;;
33930;SDS011;20215;53.130;6.408;2022-12-24T05:09:28;5.18;;;1.70;;
33930;SDS011;20215;53.130;6.408;2022-12-24T05:11:53;4.63;;;1.52;;
33930;SDS011;20215;53.130;6.408;2022-12-24T05:14:19;5.10;;;1.50;;
33930;SDS011;20215;53.130;6.408;2022-12-24T05:16:44;5.30;;;2.15;;
33930;SDS011;20215;53.130;6.408;2022-12-24T05:19:10;7.95;;;1.73;;
33930;SDS011;20215;53.130;6.408;2022-12-24T05:21:36;4.72;;;1.80;;
33930;SDS011;20215;53.130;6.408;2022-12-24T05:24:01;9.68;;;2.00;;
33930;SDS011;20215;53.130;6.408;2022-12-24T05:26:59;7.47;;;1.45;;
33930;SDS011;20215;53.130;6.408;2022-12-24T05:29:25;8.60;;;3.15;;
33930;SDS011;20215;53.130;6.408;2022-12-24T05:31:50;6.82;;;1.70;;
33930;SDS011;20215;53.130;6.408;2022-12-24T05:34:16;5.30;;;1.70;;
33930;SDS011;20215;53.130;6.408;2022-12-24T05:36:42;9.75;;;2.33;;
33930;SDS011;20215;53.130;6.408;2022-12-24T05:39:09;3.83;;;1.20;;
33930;SDS011;20215;53.130;6.408;2022-12-24T05:41:40;8.00;;;2.08;;
33930;SDS011;20215;53.130;6.408;2022-12-24T05:44:06;2.47;;;1.17;;
33930;SDS011;20215;53.130;6.408;2022-12-24T05:46:31;6.47;;;1.50;;
33930;SDS011;20215;53.130;6.408;2022-12-24T05:48:57;4.70;;;1.63;;
33930;SDS011;20215;53.130;6.408;2022-12-24T05:51:22;3.67;;;1.80;;
33930;SDS011;20215;53.130;6.408;2022-12-24T05:53:49;9.13;;;1.75;;
33930;SDS011;20215;53.130;6.408;2022-12-24T05:56:18;6.60;;;1.90;;
33930;SDS011;20215;53.130;6.408;2022-12-24T05:58:45;7.80;;;2.05;;
33930;SDS011;20215;53.130;6.408;2022-12-24T06:01:12;8.98;;;1.60;;
33930;SDS011;20215;53.130;6.408;2022-12-24T06:03:38;6.57;;;2.15;;
33930;SDS011;20215;53.130;6.408;2022-12-24T06:06:04;8.40;;;2.10;;
33930;SDS011;20215;53.130;6.408;2022-12-24T06:08:45;10.77;;;1.70;;
33930;SDS011;20215;53.130;6.408;2022-12-24T06:11:12;7.00;;;2.75;;
33930;SDS011;20215;53.130;6.408;2022-12-24T06:13:39;6.85;;;2.38;;
33930;SDS011;20215;53.130;6.408;2022-12-24T06:16:06;9.35;;;2.42;;
33930;SDS011;20215;53.130;6.408;2022-12-24T06:18:33;7.80;;;2.08;;
33930;SDS011;20215;53.130;6.408;2022-12-24T06:21:00;7.88;;;1.95;;
33930;SDS011;20215;53.130;6.408;2022-12-24T06:23:30;9.02;;;2.38;;
33930;SDS011;20215;53.130;6.408;2022-12-24T06:25:58;8.82;;;2.63;;
33930;SDS011;20215;53.130;6.408;2022-12-24T06:28:25;8.52;;;2.10;;
33930;SDS011;20215;53.130;6.408;2022-12-24T06:30:51;9.77;;;3.15;;
33930;SDS011;20215;53.130;6.408;2022-12-24T06:33:17;8.77;;;1.92;;
33930;SDS011;20215;53.130;6.408;2022-12-24T06:35:43;7.85;;;2.15;;
33930;SDS011;20215;53.130;6.408;2022-12-24T06:38:10;13.73;;;3.20;;
33930;SDS011;20215;53.130;6.408;2022-12-24T06:40:38;7.07;;;1.70;;
33930;SDS011;20215;53.130;6.408;2022-12-24T06:43:04;9.15;;;2.60;;
33930;SDS011;20215;53.130;6.408;2022-12-24T06:45:30;10.05;;;2.00;;
33930;SDS011;20215;53.130;6.408;2022-12-24T06:47:56;8.57;;;1.75;;
33930;SDS011;20215;53.130;6.408;2022-12-24T06:50:22;13.93;;;3.25;;
33930;SDS011;20215;53.130;6.408;2022-12-24T06:52:47;12.15;;;2.35;;
33930;SDS011;20215;53.130;6.408;2022-12-24T06:55:13;6.30;;;1.73;;
33930;SDS011;20215;53.130;6.408;2022-12-24T06:57:39;11.02;;;1.95;;
33930;SDS011;20215;53.130;6.408;2022-12-24T07:00:06;8.85;;;2.60;;
33930;SDS011;20215;53.130;6.408;2022-12-24T07:02:32;11.15;;;2.80;;
33930;SDS011;20215;53.130;6.408;2022-12-24T07:04:58;7.20;;;2.55;;
33930;SDS011;20215;53.130;6.408;2022-12-24T07:07:24;9.20;;;2.45;;
33930;SDS011;20215;53.130;6.408;2022-12-24T07:09:49;12.80;;;3.38;;
33930;SDS011;20215;53.130;6.408;2022-12-24T07:12:15;8.48;;;2.20;;
33930;SDS011;20215;53.130;6.408;2022-12-24T07:14:40;6.80;;;1.92;;
33930;SDS011;20215;53.130;6.408;2022-12-24T07:17:06;8.43;;;2.35;;
33930;SDS011;20215;53.130;6.408;2022-12-24T07:19:31;7.80;;;1.90;;
33930;SDS011;20215;53.130;6.408;2022-12-24T07:21:58;12.10;;;3.10;;
33930;SDS011;20215;53.130;6.408;2022-12-24T07:24:24;6.22;;;2.25;;
33930;SDS011;20215;53.130;6.408;2022-12-24T07:26:49;9.57;;;2.20;;
33930;SDS011;20215;53.130;6.408;2022-12-24T07:29:15;7.40;;;2.33;;
33930;SDS011;20215;53.130;6.408;2022-12-24T07:31:40;5.88;;;1.70;;
33930;SDS011;20215;53.130;6.408;2022-12-24T07:34:06;4.72;;;1.48;;
33930;SDS011;20215;53.130;6.408;2022-12-24T07:36:31;4.55;;;1.67;;
33930;SDS011;20215;53.130;6.408;2022-12-24T07:38:57;8.02;;;2.13;;
33930;SDS011;20215;53.130;6.408;2022-12-24T07:41:23;8.38;;;2.63;;
33930;SDS011;20215;53.130;6.408;2022-12-24T07:43:48;7.30;;;2.20;;
33930;SDS011;20215;53.130;6.408;2022-12-24T07:46:14;11.52;;;2.88;;
33930;SDS011;20215;53.130;6.408;2022-12-24T07:48:40;7.70;;;2.30;;
33930;SDS011;20215;53.130;6.408;2022-12-24T07:51:05;6.93;;;1.80;;
33930;SDS011;20215;53.130;6.408;2022-12-24T07:53:34;8.02;;;2.28;;
33930;SDS011;20215;53.130;6.408;2022-12-24T07:56:00;8.07;;;2.83;;
33930;SDS011;20215;53.130;6.408;2022-12-24T07:58:25;7.35;;;2.13;;
33930;SDS011;20215;53.130;6.408;2022-12-24T08:00:57;8.00;;;1.88;;
33930;SDS011;20215;53.130;6.408;2022-12-24T08:03:24;8.93;;;3.13;;
33930;SDS011;20215;53.130;6.408;2022-12-24T08:05:50;10.95;;;2.35;;
33930;SDS011;20215;53.130;6.408;2022-12-24T08:08:17;7.15;;;1.95;;
33930;SDS011;20215;53.130;6.408;2022-12-24T08:10:43;7.57;;;2.45;;
33930;SDS011;20215;53.130;6.408;2022-12-24T08:13:09;8.88;;;2.35;;
33930;SDS011;20215;53.130;6.408;2022-12-24T08:15:35;10.90;;;2.75;;
33930;SDS011;20215;53.130;6.408;2022-12-24T08:18:01;4.53;;;1.83;;
33930;SDS011;20215;53.130;6.408;2022-12-24T08:20:26;6.63;;;1.77;;
33930;SDS011;20215;53.130;6.408;2022-12-24T08:22:52;11.27;;;3.00;;
33930;SDS011;20215;53.130;6.408;2022-12-24T08:25:18;9.48;;;2.67;;
33930;SDS011;20215;53.130;6.408;2022-12-24T08:27:44;11.05;;;2.10;;
33930;SDS011;20215;53.130;6.408;2022-12-24T08:30:10;10.77;;;1.80;;
33930;SDS011;20215;53.130;6.408;2022-12-24T08:32:36;7.03;;;2.72;;
33930;SDS011;20215;53.130;6.408;2022-12-24T08:35:02;7.75;;;1.98;;
33930;SDS011;20215;53.130;6.408;2022-12-24T08:37:28;8.30;;;2.33;;
33930;SDS011;20215;53.130;6.408;2022-12-24T08:39:54;7.10;;;1.63;;
33930;SDS011;20215;53.130;6.408;2022-12-24T08:42:20;9.40;;;2.30;;
33930;SDS011;20215;53.130;6.408;2022-12-24T08:44:45;8.05;;;2.10;;
33930;SDS011;20215;53.130;6.408;2022-12-24T08:47:11;8.88;;;2.42;;
33930;SDS011;20215;53.130;6.408;2022-12-24T08:49:36;5.47;;;2.08;;
33930;SDS011;20215;53.130;6.408;2022-12-24T08:52:03;4.53;;;1.60;;
33930;SDS011;20215;53.130;6.408;2022-12-24T08:54:29;9.80;;;2.67;;
33930;SDS011;20215;53.130;6.408;2022-12-24T08:56:55;6.07;;;1.83;;
33930;SDS011;20215;53.130;6.408;2022-12-24T08:59:20;10.75;;;2.90;;
33930;SDS011;20215;53.130;6.408;2022-12-24T09:01:46;7.05;;;1.85;;
33930;SDS011;20215;53.130;6.408;2022-12-24T09:04:12;6.72;;;1.75;;
33930;SDS011;20215;53.130;6.408;2022-12-24T09:06:37;10.93;;;2.97;;
33930;SDS011;20215;53.130;6.408;2022-12-24T09:09:03;12.07;;;2.65;;
33930;SDS011;20215;53.130;6.408;2022-12-24T09:11:30;4.68;;;1.55;;
33930;SDS011;20215;53.130;6.408;2022-12-24T09:13:55;10.15;;;2.33;;
33930;SDS011;20215;53.130;6.408;2022-12-24T09:16:21;9.60;;;2.95;;
33930;SDS011;20215;53.130;6.408;2022-12-24T09:18:47;10.07;;;2.15;;
33930;SDS011;20215;53.130;6.408;2022-12-24T09:21:13;6.45;;;2.38;;
33930;SDS011;20215;53.130;6.408;2022-12-24T09:23:41;6.35;;;1.73;;
33930;SDS011;20215;53.130;6.408;2022-12-24T09:26:09;7.55;;;1.92;;
33930;SDS011;20215;53.130;6.408;2022-12-24T09:28:39;10.88;;;2.58;;
33930;SDS011;20215;53.130;6.408;2022-12-24T09:31:05;12.30;;;2.67;;
33930;SDS011;20215;53.130;6.408;2022-12-24T09:33:32;9.20;;;3.20;;
33930;SDS011;20215;53.130;6.408;2022-12-24T09:35:59;10.98;;;2.75;;
33930;SDS011;20215;53.130;6.408;2022-12-24T09:38:25;9.02;;;2.45;;
33930;SDS011;20215;53.130;6.408;2022-12-24T09:40:51;5.80;;;2.10;;
33930;SDS011;20215;53.130;6.408;2022-12-24T09:43:19;7.47;;;2.92;;
33930;SDS011;20215;53.130;6.408;2022-12-24T09:48:38;8.18;;;1.92;;
33930;SDS011;20215;53.130;6.408;2022-12-24T09:56:01;12.30;;;2.63;;
33930;SDS011;20215;53.130;6.408;2022-12-24T09:58:33;6.38;;;2.10;;
33930;SDS011;20215;53.130;6.408;2022-12-24T10:01:04;9.95;;;2.38;;
33930;SDS011;20215;53.130;6.408;2022-12-24T10:03:30;9.20;;;2.20;;
33930;SDS011;20215;53.130;6.408;2022-12-24T10:08:27;6.43;;;1.80;;
33930;SDS011;20215;53.130;6.408;2022-12-24T10:19:24;5.90;;;1.63;;
33930;SDS011;20215;53.130;6.408;2022-12-24T10:24:52;9.65;;;2.42;;
33930;SDS011;20215;53.130;6.408;2022-12-24T10:27:23;6.85;;;2.30;;
33930;SDS011;20215;53.130;6.408;2022-12-24T10:29:58;14.23;;;2.42;;
33930;SDS011;20215;53.130;6.408;2022-12-24T10:32:30;5.55;;;1.42;;
33930;SDS011;20215;53.130;6.408;2022-12-24T10:37:38;15.37;;;2.70;;
33930;SDS011;20215;53.130;6.408;2022-12-24T10:40:05;6.93;;;2.47;;
33930;SDS011;20215;53.130;6.408;2022-12-24T10:42:38;9.65;;;2.42;;
33930;SDS011;20215;53.130;6.408;2022-12-24T10:45:19;12.40;;;3.40;;
33930;SDS011;20215;53.130;6.408;2022-12-24T10:47:47;6.90;;;2.65;;
33930;SDS011;20215;53.130;6.408;2022-12-24T10:50:24;11.52;;;2.15;;
33930;SDS011;20215;53.130;6.408;2022-12-24T10:52:56;8.63;;;2.42;;
33930;SDS011;20215;53.130;6.408;2022-12-24T10:55:31;6.53;;;2.00;;
33930;SDS011;20215;53.130;6.408;2022-12-24T10:57:58;8.27;;;2.00;;
33930;SDS011;20215;53.130;6.408;2022-12-24T11:00:26;10.63;;;2.00;;
33930;SDS011;20215;53.130;6.408;2022-12-24T11:05:36;15.50;;;2.97;;
33930;SDS011;20215;53.130;6.408;2022-12-24T11:10:39;6.20;;;1.83;;
33930;SDS011;20215;53.130;6.408;2022-12-24T11:13:35;5.70;;;1.83;;
33930;SDS011;20215;53.130;6.408;2022-12-24T11:16:16;11.82;;;2.42;;
33930;SDS011;20215;53.130;6.408;2022-12-24T11:18:48;6.55;;;1.65;;
33930;SDS011;20215;53.130;6.408;2022-12-24T11:21:36;7.55;;;2.20;;
33930;SDS011;20215;53.130;6.408;2022-12-24T11:26:45;6.73;;;1.97;;
33930;SDS011;20215;53.130;6.408;2022-12-24T11:31:47;6.93;;;1.85;;
33930;SDS011;20215;53.130;6.408;2022-12-24T11:36:54;10.13;;;2.38;;
33930;SDS011;20215;53.130;6.408;2022-12-24T11:39:37;11.57;;;3.13;;
33930;SDS011;20215;53.130;6.408;2022-12-24T11:42:21;8.57;;;1.92;;
33930;SDS011;20215;53.130;6.408;2022-12-24T11:44:56;6.07;;;1.88;;
33930;SDS011;20215;53.130;6.408;2022-12-24T11:47:36;9.63;;;3.33;;
33930;SDS011;20215;53.130;6.408;2022-12-24T11:52:45;11.88;;;2.47;;
33930;SDS011;20215;53.130;6.408;2022-12-24T11:55:14;10.10;;;2.13;;
33930;SDS011;20215;53.130;6.408;2022-12-24T12:00:42;5.22;;;1.55;;
33930;SDS011;20215;53.130;6.408;2022-12-24T12:03:19;8.40;;;2.08;;
33930;SDS011;20215;53.130;6.408;2022-12-24T12:05:52;7.00;;;2.00;;
33930;SDS011;20215;53.130;6.408;2022-12-24T12:08:19;9.50;;;2.78;;
33930;SDS011;20215;53.130;6.408;2022-12-24T12:10:47;5.40;;;1.23;;
33930;SDS011;20215;53.130;6.408;2022-12-24T12:13:16;8.13;;;1.90;;
33930;SDS011;20215;53.130;6.408;2022-12-24T12:18:33;8.73;;;2.17;;
33930;SDS011;20215;53.130;6.408;2022-12-24T12:21:05;6.85;;;1.83;;
33930;SDS011;20215;53.130;6.408;2022-12-24T12:23:57;5.65;;;1.73;;
33930;SDS011;20215;53.130;6.408;2022-12-24T12:26:29;6.80;;;2.55;;
33930;SDS011;20215;53.130;6.408;2022-12-24T12:31:53;7.30;;;1.70;;
33930;SDS011;20215;53.130;6.408;2022-12-24T12:34:27;10.07;;;2.22;;
33930;SDS011;20215;53.130;6.408;2022-12-24T12:37:01;4.78;;;2.10;;
33930;SDS011;20215;53.130;6.408;2022-12-24T12:39:34;5.72;;;1.80;;
33930;SDS011;20215;53.130;6.408;2022-12-24T12:42:12;7.07;;;1.75;;
33930;SDS011;20215;53.130;6.408;2022-12-24T12:44:45;7.90;;;1.50;;
33930;SDS011;20215;53.130;6.408;2022-12-24T12:53:10;10.13;;;3.17;;
33930;SDS011;20215;53.130;6.408;2022-12-24T12:55:46;5.97;;;1.95;;
33930;SDS011;20215;53.130;6.408;2022-12-24T12:58:35;6.38;;;1.80;;
33930;SDS011;20215;53.130;6.408;2022-12-24T13:09:16;10.25;;;1.95;;
33930;SDS011;20215;53.130;6.408;2022-12-24T13:14:53;5.35;;;1.40;;
33930;SDS011;20215;53.130;6.408;2022-12-24T13:23:00;5.35;;;1.80;;
33930;SDS011;20215;53.130;6.408;2022-12-24T13:25:41;3.83;;;1.85;;
33930;SDS011;20215;53.130;6.408;2022-12-24T13:30:50;5.82;;;1.80;;
33930;SDS011;20215;53.130;6.408;2022-12-24T13:36:05;4.75;;;1.17;;
33930;SDS011;20215;53.130;6.408;2022-12-24T13:38:34;4.45;;;1.50;;
33930;SDS011;20215;53.130;6.408;2022-12-24T13:44:13;5.85;;;1.75;;
33930;SDS011;20215;53.130;6.408;2022-12-24T13:49:41;6.32;;;1.90;;
33930;SDS011;20215;53.130;6.408;2022-12-24T13:57:22;5.20;;;1.92;;
33930;SDS011;20215;53.130;6.408;2022-12-24T14:02:26;5.68;;;1.48;;
33930;SDS011;20215;53.130;6.408;2022-12-24T14:04:56;3.60;;;1.20;;
33930;SDS011;20215;53.130;6.408;2022-12-24T14:07:29;5.70;;;1.50;;
33930;SDS011;20215;53.130;6.408;2022-12-24T14:09:55;5.25;;;1.55;;
33930;SDS011;20215;53.130;6.408;2022-12-24T14:12:37;5.57;;;1.60;;
33930;SDS011;20215;53.130;6.408;2022-12-24T14:18:18;5.18;;;1.23;;
33930;SDS011;20215;53.130;6.408;2022-12-24T14:20:49;3.60;;;1.65;;
33930;SDS011;20215;53.130;6.408;2022-12-24T14:25:57;6.68;;;1.67;;
33930;SDS011;20215;53.130;6.408;2022-12-24T14:28:27;3.53;;;1.30;;
33930;SDS011;20215;53.130;6.408;2022-12-24T14:31:02;6.53;;;1.13;;
33930;SDS011;20215;53.130;6.408;2022-12-24T14:33:36;4.60;;;1.65;;
33930;SDS011;20215;53.130;6.408;2022-12-24T14:36:02;6.03;;;1.88;;
33930;SDS011;20215;53.130;6.408;2022-12-24T14:38:28;5.43;;;1.38;;
33930;SDS011;20215;53.130;6.408;2022-12-24T14:41:06;5.70;;;1.63;;
33930;SDS011;20215;53.130;6.408;2022-12-24T14:47:00;3.90;;;1.55;;
33930;SDS011;20215;53.130;6.408;2022-12-24T14:49:46;4.15;;;1.30;;
33930;SDS011;20215;53.130;6.408;2022-12-24T15:00:45;4.25;;;1.75;;
33930;SDS011;20215;53.130;6.408;2022-12-24T15:03:11;2.60;;;1.08;;
33930;SDS011;20215;53.130;6.408;2022-12-24T15:05:38;5.15;;;1.85;;
33930;SDS011;20215;53.130;6.408;2022-12-24T15:08:08;4.57;;;1.35;;
33930;SDS011;20215;53.130;6.408;2022-12-24T15:10:40;6.53;;;1.73;;
33930;SDS011;20215;53.130;6.408;2022-12-24T15:15:45;6.97;;;1.17;;
33930;SDS011;20215;53.130;6.408;2022-12-24T15:18:16;6.35;;;2.03;;
33930;SDS011;20215;53.130;6.408;2022-12-24T15:20:44;3.17;;;1.17;;
33930;SDS011;20215;53.130;6.408;2022-12-24T15:23:17;6.47;;;1.20;;
33930;SDS011;20215;53.130;6.408;2022-12-24T15:25:44;9.05;;;1.92;;
33930;SDS011;20215;53.130;6.408;2022-12-24T15:28:19;6.43;;;1.73;;
33930;SDS011;20215;53.130;6.408;2022-12-24T15:30:47;10.70;;;1.73;;
33930;SDS011;20215;53.130;6.408;2022-12-24T15:33:13;7.22;;;1.50;;
33930;SDS011;20215;53.130;6.408;2022-12-24T15:35:49;6.30;;;1.85;;
33930;SDS011;20215;53.130;6.408;2022-12-24T15:38:53;2.63;;;0.88;;
33930;SDS011;20215;53.130;6.408;2022-12-24T15:43:42;5.35;;;2.20;;
33930;SDS011;20215;53.130;6.408;2022-12-24T15:46:16;4.15;;;1.38;;
33930;SDS011;20215;53.130;6.408;2022-12-24T15:48:49;5.95;;;1.40;;
33930;SDS011;20215;53.130;6.408;2022-12-24T15:51:34;4.80;;;1.40;;
33930;SDS011;20215;53.130;6.408;2022-12-24T15:54:02;4.93;;;1.30;;
33930;SDS011;20215;53.130;6.408;2022-12-24T15:56:38;4.32;;;1.58;;
33930;SDS011;20215;53.130;6.408;2022-12-24T16:01:40;5.18;;;2.13;;
33930;SDS011;20215;53.130;6.408;2022-12-24T16:04:14;5.30;;;1.38;;
33930;SDS011;20215;53.130;6.408;2022-12-24T16:07:00;3.78;;;1.45;;
33930;SDS011;20215;53.130;6.408;2022-12-24T16:11:57;6.25;;;1.88;;
33930;SDS011;20215;53.130;6.408;2022-12-24T16:14:23;8.00;;;1.55;;
33930;SDS011;20215;53.130;6.408;2022-12-24T16:16:50;6.60;;;1.98;;
33930;SDS011;20215;53.130;6.408;2022-12-24T16:19:21;7.18;;;1.50;;
33930;SDS011;20215;53.130;6.408;2022-12-24T16:21:56;4.20;;;1.20;;
33930;SDS011;20215;53.130;6.408;2022-12-24T16:24:49;5.55;;;1.73;;
33930;SDS011;20215;53.130;6.408;2022-12-24T16:27:19;7.18;;;1.50;;
33930;SDS011;20215;53.130;6.408;2022-12-24T16:29:45;3.40;;;1.48;;
33930;SDS011;20215;53.130;6.408;2022-12-24T16:32:30;5.88;;;1.27;;
33930;SDS011;20215;53.130;6.408;2022-12-24T16:34:58;4.03;;;1.10;;
33930;SDS011;20215;53.130;6.408;2022-12-24T16:37:25;5.05;;;1.42;;
33930;SDS011;20215;53.130;6.408;2022-12-24T16:39:50;8.27;;;2.65;;
33930;SDS011;20215;53.130;6.408;2022-12-24T16:42:18;6.95;;;1.80;;
33930;SDS011;20215;53.130;6.408;2022-12-24T16:45:03;2.92;;;1.13;;
33930;SDS011;20215;53.130;6.408;2022-12-24T16:47:33;6.43;;;2.42;;
33930;SDS011;20215;53.130;6.408;2022-12-24T16:50:00;5.40;;;1.75;;
33930;SDS011;20215;53.130;6.408;2022-12-24T16:52:28;7.75;;;2.13;;
33930;SDS011;20215;53.130;6.408;2022-12-24T16:54:57;7.07;;;2.03;;
33930;SDS011;20215;53.130;6.408;2022-12-24T16:57:24;5.68;;;1.63;;
33930;SDS011;20215;53.130;6.408;2022-12-24T16:59:50;4.15;;;1.27;;
33930;SDS011;20215;53.130;6.408;2022-12-24T17:02:17;4.80;;;1.50;;
33930;SDS011;20215;53.130;6.408;2022-12-24T17:04:54;3.45;;;1.23;;
33930;SDS011;20215;53.130;6.408;2022-12-24T17:07:20;6.68;;;2.15;;
33930;SDS011;20215;53.130;6.408;2022-12-24T17:09:46;5.72;;;2.10;;
33930;SDS011;20215;53.130;6.408;2022-12-24T17:12:12;5.40;;;2.00;;